Thunder radar more information blitzortung!


Radar de pluja more information rain snow radar


Visita la nostra xarxa de llocs de meteo:

Template documentation
and downloads

And another site



No particular awareness of the weather is required.    There are no Weather-warnings

Pagina Historial Weather Underground text

Diari Resum Juliol 15, 2017 Unitats:  Mètric    Imperial   Tant
« Previous Dia
SegĂźent Dia »
Diari Setmana Mensual Anual Personalitzada
  Maxima: Minima: Media:
Temperatura: -17.8 °C -4.3 °C -1.2 °C
Punt de rosada: -17.8 °C -8.1 °C -7.5 °C
Humitat: Humidity % 40 % 51 %
Wind Speed: 0 km/h 6 km/h 15 km/h
RĂ fegues de vent: 0 km/h - -
Vent:- - SSW
Pression baro: 0 hPa 34327.3 hPa -
Precipitacions: 0 mm    
Historical Graphs
 
 
Dades de taula per Juliol 15, 2017
Temps Temperatura Punt de rosada Pression baro Vent Wind Speed RĂ fegues de vent Humitat Rainfall Rate (Hourly)
-17.8 °C -17.8 °C 0 hPa Calm     Humidity % 0 mm
00:04 -4.2 °C -7.1 °C 34462.7 hPa WSW 6 km/h 6 km/h 73 % 0 mm
10:32 -2.8 °C -6.5 °C 34462.7 hPa West 6 km/h 6.9 km/h 67 % 0 mm
10:37 -2.8 °C -6.7 °C 34496.6 hPa ESE 9 km/h 9 km/h 66 % 0 mm
10:42 -2.8 °C -6.7 °C 34496.6 hPa ENE 9 km/h 9 km/h 66 % 0 mm
10:47 -2.6 °C -6.6 °C 34496.6 hPa SSE 7.6 km/h 7.6 km/h 65 % 0 mm
10:52 -2.4 °C -6.6 °C 34462.7 hPa ESE 9 km/h 9 km/h 64 % 0 mm
10:57 -2.3 °C -6.4 °C 34462.7 hPa South 6.3 km/h 6.3 km/h 64 % 0 mm
10:58 -2.3 °C -6.4 °C 34462.7 hPa South 6.3 km/h 6.3 km/h 64 % 0 mm
11:03 -2 °C -6.3 °C 34462.7 hPa South 9 km/h 9 km/h 63 % 0 mm
11:08 -1.8 °C -6.3 °C 34462.7 hPa SSE 9.8 km/h 9.8 km/h 62 % 0 mm
11:13 -1.9 °C -6.7 °C 34462.7 hPa SW 15 km/h 15 km/h 60 % 0 mm
11:18 -1.6 °C -6.4 °C 34462.7 hPa SW 16.6 km/h 16.6 km/h 59 % 0 mm
11:23 -1.4 °C -6.8 °C 34462.7 hPa SE 16.1 km/h 16.1 km/h 56 % 0 mm
11:28 -1.3 °C -6.8 °C 34462.7 hPa SE 11.9 km/h 11.9 km/h 55 % 0 mm
11:33 -1.2 °C -6.9 °C 34462.7 hPa SSE 9 km/h 9 km/h 54 % 0 mm
11:38 -0.9 °C -6.7 °C 34428.8 hPa East 9 km/h 9 km/h 54 % 0 mm
11:43 -0.8 °C -6.6 °C 34428.8 hPa SW 6.3 km/h 6.3 km/h 54 % 0 mm
11:48 -0.6 °C -6.4 °C 34428.8 hPa SW 11.1 km/h 11.1 km/h 54 % 0 mm
11:53 -0.8 °C -6.9 °C 34395 hPa SW 15 km/h 15 km/h 52 % 0 mm
11:58 -0.6 °C -7.1 °C 34395 hPa SW 11.1 km/h 11.1 km/h 50 % 0 mm
12:00 -0.5 °C -7 °C 34395 hPa SW 15 km/h 15 km/h 50 % 0 mm
12:05 -0.4 °C -6.9 °C 34395 hPa WSW 15.6 km/h 15.6 km/h 50 % 0 mm
12:10 -0.3 °C -6.9 °C 34395 hPa SSE 9 km/h 9 km/h 49 % 0 mm
12:15 0.1 °C -7.2 °C 34395 hPa South 9.3 km/h 9.3 km/h 46 % 0 mm
12:20 0.1 °C -7 °C 34395 hPa SSW 9 km/h 9 km/h 47 % 0 mm
12:25 0.1 °C -6.8 °C 34395 hPa SSW 15 km/h 15 km/h 48 % 0 mm
12:30 -0.1 °C -7 °C 34395 hPa SSW 11.9 km/h 11.9 km/h 48 % 0 mm
12:35 0 °C -7.1 °C 34395 hPa NNW 9 km/h 9 km/h 47 % 0 mm
12:40 -0.1 °C -7.3 °C 34395 hPa SSW 17.9 km/h 17.9 km/h 46 % 0 mm
12:45 -0.2 °C -7.4 °C 34395 hPa WNW 11.9 km/h 11.9 km/h 46 % 0 mm
12:50 0.1 °C -7.3 °C 34395 hPa SSW 9 km/h 9 km/h 45 % 0 mm
12:55 0.4 °C -7.1 °C 34361.1 hPa WSW 9.3 km/h 9.3 km/h 45 % 0 mm
13:00 0.4 °C -7.1 °C 34361.1 hPa South 20.9 km/h 20.9 km/h 45 % 0 mm
13:05 0.2 °C -7.3 °C 34361.1 hPa SE 9 km/h 9 km/h 45 % 0 mm
13:10 0.6 °C -7.2 °C 34395 hPa South 11.9 km/h 11.9 km/h 44 % 0 mm
13:15 0.1 °C -7.4 °C 34395 hPa West 16.6 km/h 16.6 km/h 45 % 0 mm
13:20 0.1 °C -7.6 °C 34395 hPa WNW 11.9 km/h 11.9 km/h 44 % 0 mm
13:25 0.3 °C -7.3 °C 34395 hPa SW 11.9 km/h 11.9 km/h 44 % 0 mm
13:30 0.4 °C -7.3 °C 34395 hPa SSW 6.8 km/h 6.8 km/h 44 % 0 mm
13:35 0.4 °C -7.1 °C 34395 hPa SSW 11.9 km/h 11.9 km/h 45 % 0 mm
13:40 0.4 °C -7.1 °C 34395 hPa SW 11.9 km/h 11.9 km/h 45 % 0 mm
13:41 0.6 °C -7.2 °C 34395 hPa East 6 km/h 6 km/h 44 % 0 mm
13:46 0.8 °C -7.2 °C 34395 hPa ENE 15 km/h 15 km/h 43 % 0 mm
13:51 0.6 °C -7.2 °C 34395 hPa ESE 9 km/h 9 km/h 44 % 0 mm
13:56 0.5 °C -7 °C 34395 hPa WSW 20.9 km/h 20.9 km/h 45 % 0 mm
14:01 0.1 °C -7.3 °C 34395 hPa South 15 km/h 15 km/h 45 % 0 mm
14:06 0.1 °C -7.3 °C 34395 hPa SSE 15 km/h 15 km/h 45 % 0 mm
14:11 0.3 °C -6.9 °C 34361.1 hPa SW 11.1 km/h 11.1 km/h 46 % 0 mm
14:16 0.6 °C -6.8 °C 34361.1 hPa SW 15 km/h 15 km/h 46 % 0 mm
14:21 0.2 °C -7.1 °C 34361.1 hPa SW 11.9 km/h 11.9 km/h 46 % 0 mm
14:26 0.3 °C -6.9 °C 34361.1 hPa WSW 23.8 km/h 23.8 km/h 46 % 0 mm
14:31 0.4 °C -6.9 °C 34361.1 hPa SW 17.9 km/h 17.9 km/h 46 % 0 mm
14:36 0.6 °C -6.9 °C 34361.1 hPa SSE 20.9 km/h 20.9 km/h 45 % 0 mm
14:41 0.8 °C -6.8 °C 34361.1 hPa WSW 6.3 km/h 6.8 km/h 45 % 0 mm
14:46 0.9 °C -6.6 °C 34361.1 hPa SW 16.6 km/h 16.6 km/h 45 % 0 mm
14:51 0.9 °C -6.8 °C 34361.1 hPa SW 29.8 km/h 29.8 km/h 44 % 0 mm
14:56 0.8 °C -6.9 °C 34361.1 hPa SSW 16.1 km/h 16.1 km/h 44 % 0 mm
15:01 0.8 °C -6.9 °C 34361.1 hPa WSW 8 km/h 8 km/h 44 % 0 mm
15:06 0.8 °C -6.9 °C 34361.1 hPa SW 26.9 km/h 26.9 km/h 44 % 0 mm
15:11 0.8 °C -7.1 °C 34361.1 hPa South 11.9 km/h 11.9 km/h 43 % 0 mm
15:16 1.1 °C -6.8 °C 34361.1 hPa West 9 km/h 9 km/h 43 % 0 mm
15:21 1.3 °C -6.7 °C 34361.1 hPa SW 9 km/h 9 km/h 43 % 0 mm
15:26 1.3 °C -6.7 °C 34395 hPa WSW 20.9 km/h 20.9 km/h 43 % 0 mm
15:31 1.2 °C -7 °C 34395 hPa SSW 9 km/h 9.8 km/h 42 % 0 mm
15:36 1.3 °C -6.9 °C 34395 hPa SSW 17.9 km/h 17.9 km/h 42 % 0 mm
15:41 1.2 °C -7 °C 34395 hPa SE 9 km/h 9 km/h 42 % 0 mm
15:46 1.1 °C -7.1 °C 34395 hPa SSW 11.9 km/h 11.9 km/h 42 % 0 mm
15:51 1.2 °C -7 °C 34395 hPa South 25.1 km/h 25.1 km/h 42 % 0 mm
15:56 1 °C -7.2 °C 34395 hPa South 17.9 km/h 17.9 km/h 42 % 0 mm
16:01 1.2 °C -7 °C 34395 hPa WNW 7.6 km/h 7.6 km/h 42 % 0 mm
16:06 1.4 °C -6.8 °C 34395 hPa WSW 9 km/h 9 km/h 42 % 0 mm
16:11 1.4 °C -7 °C 34361.1 hPa SW 15 km/h 15 km/h 41 % 0 mm
16:16 1.3 °C -7.1 °C 34361.1 hPa SW 23.8 km/h 23.8 km/h 41 % 0 mm
16:21 1.2 °C -7.2 °C 34361.1 hPa SW 23.8 km/h 23.8 km/h 41 % 0 mm
16:26 1 °C -7.6 °C 34361.1 hPa South 23.8 km/h 23.8 km/h 40 % 0 mm
16:31 0.8 °C -7.8 °C 34361.1 hPa WSW 20.9 km/h 20.9 km/h 40 % 0 mm
16:36 0.6 °C -7.9 °C 34361.1 hPa SSW 17.9 km/h 17.9 km/h 40 % 0 mm
16:41 0.7 °C -7.9 °C 34361.1 hPa WSW 20.9 km/h 20.9 km/h 40 % 0 mm
16:46 0.7 °C -7.8 °C 34361.1 hPa SSW 23.8 km/h 23.8 km/h 40 % 0 mm
16:51 1 °C -7.4 °C 34361.1 hPa SW 20.9 km/h 20.9 km/h 41 % 0 mm
16:56 0.4 °C -7.9 °C 34361.1 hPa West 26.9 km/h 26.9 km/h 41 % 0 mm
17:01 0.6 °C -7.8 °C 34361.1 hPa SSW 17.9 km/h 17.9 km/h 41 % 0 mm
17:06 0.7 °C -7.7 °C 34361.1 hPa SW 11.9 km/h 11.9 km/h 41 % 0 mm
17:11 0.3 °C -8 °C 34361.1 hPa West 20.9 km/h 20.9 km/h 41 % 0 mm
17:12 0.4 °C -7.7 °C 34361.1 hPa SSW 15 km/h 15 km/h 42 % 0 mm
17:17 0.6 °C -7.7 °C 34361.1 hPa SSW 20.9 km/h 20.9 km/h 41 % 0 mm
17:22 0.4 °C -7.7 °C 34361.1 hPa WSW 17.9 km/h 17.9 km/h 42 % 0 mm
17:27 0.3 °C -7.8 °C 34361.1 hPa South 17.9 km/h 17.9 km/h 42 % 0 mm
17:32 0.4 °C -7.7 °C 34361.1 hPa SSE 29.8 km/h 29.8 km/h 42 % 0 mm
17:37 0.1 °C -7.9 °C 34361.1 hPa SE 15 km/h 15 km/h 42 % 0 mm
17:42 0.1 °C -7.9 °C 34361.1 hPa South 20.9 km/h 20.9 km/h 42 % 0 mm
17:47 -0.1 °C -7.9 °C 34361.1 hPa WSW 15 km/h 15 km/h 43 % 0 mm
17:52 0.1 °C -7.7 °C 34361.1 hPa SW 20.9 km/h 20.9 km/h 43 % 0 mm
17:57 -0.1 °C -7.9 °C 34361.1 hPa WSW 15 km/h 15 km/h 43 % 0 mm
18:02 0.1 °C -7.7 °C 34361.1 hPa West 17.9 km/h 17.9 km/h 43 % 0 mm
18:07 0 °C -7.9 °C 34361.1 hPa SW 32.8 km/h 32.8 km/h 43 % 0 mm
18:12 -0.2 °C -8 °C 34361.1 hPa SW 20.9 km/h 20.9 km/h 43 % 0 mm
18:17 -0.4 °C -8 °C 34361.1 hPa WSW 26.9 km/h 26.9 km/h 44 % 0 mm
18:22 -0.6 °C -8 °C 34361.1 hPa South 26.9 km/h 26.9 km/h 45 % 0 mm
18:27 -0.6 °C -8 °C 34361.1 hPa SSW 23.8 km/h 23.8 km/h 45 % 0 mm
18:32 -0.7 °C -8.1 °C 34361.1 hPa SW 35.7 km/h 35.7 km/h 45 % 0 mm
18:37 -0.7 °C -8.1 °C 34327.3 hPa SW 29.8 km/h 29.8 km/h 45 % 0 mm
18:42 -0.7 °C -8.1 °C 34327.3 hPa SW 23.8 km/h 23.8 km/h 45 % 0 mm
18:47 -0.9 °C -8.1 °C 34327.3 hPa South 29.8 km/h 29.8 km/h 46 % 0 mm
18:52 -0.9 °C -8.1 °C 34327.3 hPa SW 17.9 km/h 17.9 km/h 46 % 0 mm
18:57 -0.9 °C -7.9 °C 34327.3 hPa North 20.3 km/h 20.3 km/h 47 % 0 mm
19:02 -0.8 °C -7.8 °C 34327.3 hPa West 20.9 km/h 20.9 km/h 47 % 0 mm
19:07 -0.9 °C -7.9 °C 34361.1 hPa SW 15 km/h 15 km/h 47 % 0 mm
19:12 -1 °C -7.8 °C 34361.1 hPa SW 25.1 km/h 25.1 km/h 48 % 0 mm
19:17 -0.9 °C -7.7 °C 34361.1 hPa SW 20.9 km/h 20.9 km/h 48 % 0 mm
19:22 -1.2 °C -7.9 °C 34327.3 hPa WSW 15 km/h 15 km/h 48 % 0 mm
19:25 -1.2 °C -7.8 °C 34327.3 hPa WSW 23.8 km/h 23.8 km/h 49 % 0 mm
19:30 -1.4 °C -8 °C 34327.3 hPa South 26.9 km/h 26.9 km/h 49 % 0 mm
19:35 -1.5 °C -7.9 °C 34327.3 hPa SW 25.4 km/h 25.4 km/h 50 % 0 mm
19:40 -1.7 °C -8.1 °C 34361.1 hPa WSW 32.8 km/h 32.8 km/h 50 % 0 mm
19:45 -1.7 °C -7.7 °C 34361.1 hPa WSW 20.9 km/h 20.9 km/h 52 % 0 mm
19:50 -1.7 °C -7.7 °C 34361.1 hPa SW 17.9 km/h 17.9 km/h 52 % 0 mm
19:55 -1.8 °C -7.8 °C 34361.1 hPa SW 15 km/h 15 km/h 52 % 0 mm
20:00 -1.9 °C -7.9 °C 34361.1 hPa SSW 15 km/h 15 km/h 52 % 0 mm
20:05 -1.9 °C -7.8 °C 34361.1 hPa WSW 19.6 km/h 19.6 km/h 53 % 0 mm
20:10 -2.1 °C -7.9 °C 34361.1 hPa South 15 km/h 15 km/h 53 % 0 mm
20:15 -2.1 °C -7.9 °C 34361.1 hPa WSW 6 km/h 6.3 km/h 53 % 0 mm
20:20 -2.1 °C -7.9 °C 34361.1 hPa SW 15.6 km/h 15.6 km/h 53 % 0 mm
20:25 -2.2 °C -7.9 °C 34361.1 hPa SW 23.8 km/h 23.8 km/h 54 % 0 mm
20:30 -2.3 °C -7.9 °C 34361.1 hPa SSW 14.5 km/h 14.5 km/h 54 % 0 mm
20:35 -2.3 °C -7.8 °C 34361.1 hPa WSW 15 km/h 15 km/h 55 % 0 mm
20:40 -2.4 °C -7.9 °C 34395 hPa SSW 17.9 km/h 17.9 km/h 55 % 0 mm
20:45 -2.5 °C -7.9 °C 34395 hPa SSW 17.9 km/h 17.9 km/h 55 % 0 mm
20:50 -2.6 °C -7.9 °C 34395 hPa South 17.9 km/h 17.9 km/h 56 % 0 mm
20:55 -2.7 °C -7.8 °C 34395 hPa SW 20.9 km/h 20.9 km/h 57 % 0 mm
21:00 -2.7 °C -7.9 °C 34395 hPa WSW 20.9 km/h 20.9 km/h 57 % 0 mm
21:05 -2.8 °C -7.8 °C 34395 hPa SW 17.9 km/h 17.9 km/h 58 % 0 mm
21:10 -2.9 °C -7.7 °C 34395 hPa SSE 14.5 km/h 14.5 km/h 59 % 0 mm
21:15 -3 °C -7.8 °C 34395 hPa SSW 17.9 km/h 17.9 km/h 59 % 0 mm
21:20 -3 °C -7.7 °C 34395 hPa SSW 8.5 km/h 8.5 km/h 60 % 0 mm
21:25 -3.1 °C -7.8 °C 34395 hPa SSW 11.9 km/h 11.9 km/h 60 % 0 mm
21:30 -3.2 °C -7.8 °C 34395 hPa SW 20.9 km/h 20.9 km/h 60 % 0 mm
21:35 -3.2 °C -7.7 °C 34395 hPa SW 15 km/h 15 km/h 61 % 0 mm
21:40 -3.3 °C -7.8 °C 34395 hPa WSW 17.9 km/h 17.9 km/h 61 % 0 mm
21:45 -3.3 °C -7.8 °C 34395 hPa South 11.9 km/h 11.9 km/h 61 % 0 mm
21:50 -3.4 °C -7.7 °C 34395 hPa WSW 9 km/h 9 km/h 62 % 0 mm
21:55 -3.4 °C -7.9 °C 34361.1 hPa SW 11.9 km/h 11.9 km/h 61 % 0 mm
22:00 -3.4 °C -7.9 °C 34361.1 hPa SW 14 km/h 14 km/h 61 % 0 mm
22:05 -3.5 °C -7.8 °C 34361.1 hPa SW 10.3 km/h 10.3 km/h 62 % 0 mm
22:10 -3.6 °C -7.9 °C 34395 hPa SW 9 km/h 9 km/h 62 % 0 mm
22:15 -3.6 °C -7.9 °C 34395 hPa WSW 9 km/h 9 km/h 62 % 0 mm
22:20 -3.6 °C -7.9 °C 34395 hPa SW 9 km/h 9 km/h 62 % 0 mm
22:25 -3.7 °C -7.9 °C 34395 hPa WSW 9 km/h 9 km/h 63 % 0 mm
22:30 -3.7 °C -7.9 °C 34395 hPa SSW 6 km/h 6 km/h 63 % 0 mm
22:35 -3.7 °C -7.9 °C 34395 hPa West 6 km/h 6 km/h 63 % 0 mm
22:40 -3.8 °C -7.8 °C 34395 hPa WSW 9 km/h 9 km/h 64 % 0 mm
22:45 -3.8 °C -7.9 °C 34395 hPa WSW 9 km/h 9 km/h 64 % 0 mm
22:50 -3.9 °C -7.9 °C 34395 hPa WSW 10.3 km/h 10.3 km/h 64 % 0 mm
22:55 -3.9 °C -7.7 °C 34395 hPa SW 7.6 km/h 7.6 km/h 66 % 0 mm
23:00 -3.9 °C -7.7 °C 34395 hPa WSW 8.5 km/h 8.5 km/h 66 % 0 mm
23:05 -3.9 °C -7.7 °C 34395 hPa West 6 km/h 6 km/h 66 % 0 mm
23:10 -4 °C -7.8 °C 34395 hPa West 6 km/h 6 km/h 66 % 0 mm
23:15 -4 °C -7.6 °C 34395 hPa WSW 6.3 km/h 6.3 km/h 67 % 0 mm
23:20 -4.1 °C -7.7 °C 34395 hPa SW 9 km/h 9 km/h 67 % 0 mm
23:25 -4.1 °C -7.7 °C 34428.8 hPa SW 9 km/h 9 km/h 67 % 0 mm
23:30 -4.2 °C -7.7 °C 34428.8 hPa SW 11.9 km/h 11.9 km/h 68 % 0 mm
23:35 -4.2 °C -7.7 °C 34428.8 hPa SW 9 km/h 9 km/h 68 % 0 mm
23:40 -4.2 °C -7.6 °C 34428.8 hPa SSW 8.5 km/h 8.5 km/h 69 % 0 mm
23:45 -4.3 °C -7.7 °C 34428.8 hPa SW 9 km/h 9 km/h 69 % 0 mm
23:50 -4.3 °C -7.7 °C 34428.8 hPa SW 9 km/h 9 km/h 69 % 0 mm
23:55 -4.3 °C -7.6 °C 34428.8 hPa WSW 11.9 km/h 11.9 km/h 70 % 0 mm
Meteo Sesrovires
Elogis d' Weather Underground - 1.5 mb

Guio original per  Jim McMurry - jmcmurry@mwt.net Adaptat per a la plantilla per  Wim van der Kuil - Leuven-Template.eu

Trobareu la nostra informacio del temps tambe a:

Weather Underground

AWEKAS